createdAt,value
2023-02-19T00:00:49.343Z,9.29
2023-02-19T00:05:50.889Z,9.60
2023-02-19T00:10:52.458Z,9.41
2023-02-19T00:15:55.446Z,9.61
2023-02-19T00:20:57.034Z,9.41
2023-02-19T00:26:17.182Z,9.50
2023-02-19T00:31:23.660Z,9.39
2023-02-19T00:36:26.776Z,9.37
2023-02-19T00:41:28.412Z,9.45
2023-02-19T00:46:33.649Z,9.55
2023-02-19T00:51:38.159Z,9.51
2023-02-19T00:56:39.704Z,9.49
2023-02-19T01:01:43.391Z,9.59
2023-02-19T01:06:44.980Z,9.46
2023-02-19T01:11:46.550Z,9.36
2023-02-19T01:16:49.448Z,9.42
2023-02-19T01:21:51.048Z,9.44
2023-02-19T01:26:52.558Z,9.41
2023-02-19T01:31:55.587Z,9.31
2023-02-19T01:36:57.245Z,9.42
2023-02-19T01:41:58.812Z,9.29
2023-02-19T01:47:01.726Z,9.31
2023-02-19T01:52:09.829Z,9.02
2023-02-19T01:57:16.710Z,9.35
2023-02-19T02:02:19.608Z,9.23
2023-02-19T02:07:22.338Z,9.33
2023-02-19T02:12:23.911Z,9.19
2023-02-19T02:17:34.076Z,9.18
2023-02-19T02:22:38.770Z,8.90
2023-02-19T02:27:49.224Z,9.19
2023-02-19T02:32:57.998Z,8.82
2023-02-19T02:38:03.446Z,9.02
2023-02-19T02:43:04.980Z,9.02
2023-02-19T02:48:20.973Z,9.07
2023-02-19T02:53:28.786Z,9.11
2023-02-19T02:58:32.588Z,9.13
2023-02-19T03:03:39.812Z,8.94
2023-02-19T03:08:47.972Z,9.05
2023-02-19T03:13:53.697Z,9.01
2023-02-19T03:18:59.487Z,9.11
2023-02-19T03:24:02.380Z,8.91
2023-02-19T03:29:05.683Z,8.75
2023-02-19T03:34:12.528Z,8.79
2023-02-19T03:39:17.448Z,8.83
2023-02-19T03:44:25.188Z,8.82
2023-02-19T03:49:32.476Z,9.06
2023-02-19T03:54:43.805Z,8.90
2023-02-19T03:59:52.807Z,9.03
2023-02-19T04:05:03.150Z,8.63
2023-02-19T04:10:07.649Z,8.95
2023-02-19T04:15:14.302Z,8.95
2023-02-19T04:20:19.964Z,8.85
2023-02-19T04:25:23.193Z,9.08
2023-02-19T04:30:25.109Z,9.03
2023-02-19T04:35:28.002Z,8.98
2023-02-19T04:40:29.550Z,8.81
2023-02-19T04:45:31.193Z,8.73
2023-02-19T04:50:34.136Z,8.22
2023-02-19T04:55:42.007Z,8.61
2023-02-19T05:00:43.484Z,8.24
2023-02-19T05:05:46.475Z,8.14
2023-02-19T05:10:47.956Z,8.62
2023-02-19T05:15:57.303Z,8.26
2023-02-19T05:21:00.642Z,8.16
2023-02-19T05:26:05.456Z,7.86
2023-02-19T05:31:09.095Z,8.22
2023-02-19T05:36:13.686Z,8.24
2023-02-19T05:41:17.278Z,8.04
2023-02-19T05:46:20.787Z,8.06
2023-02-19T05:51:25.436Z,7.87
2023-02-19T05:56:31.834Z,7.90
2023-02-19T06:01:34.951Z,8.01
2023-02-19T06:06:38.498Z,8.29
2023-02-19T06:11:40.566Z,8.21
2023-02-19T06:16:42.369Z,7.74
2023-02-19T06:21:45.166Z,8.26
2023-02-19T06:26:46.650Z,8.03
2023-02-19T06:31:48.290Z,7.84
2023-02-19T06:36:51.400Z,7.99
2023-02-19T06:41:55.056Z,7.81
2023-02-19T06:46:56.640Z,7.56
2023-02-19T06:51:59.552Z,7.87
2023-02-19T06:57:01.495Z,8.10
2023-02-19T07:02:03.091Z,8.07
2023-02-19T07:07:05.972Z,8.00
2023-02-19T07:12:07.734Z,8.05
2023-02-19T07:17:09.197Z,8.07
2023-02-19T07:22:11.988Z,7.42
2023-02-19T07:27:13.468Z,8.32
2023-02-19T07:32:14.928Z,7.75
2023-02-19T07:37:17.774Z,7.88
2023-02-19T07:42:19.319Z,7.90
2023-02-19T07:47:20.774Z,7.67
2023-02-19T07:52:24.010Z,7.28
2023-02-19T07:57:27.676Z,7.06
2023-02-19T08:02:29.162Z,7.01
2023-02-19T08:07:33.000Z,7.02
2023-02-19T08:12:34.461Z,7.11
2023-02-19T08:17:35.946Z,7.37
2023-02-19T08:22:38.747Z,7.11
2023-02-19T08:27:40.204Z,7.23
2023-02-19T08:32:41.688Z,7.20
2023-02-19T08:37:44.739Z,7.39
2023-02-19T08:42:46.269Z,7.35
2023-02-19T08:47:47.745Z,7.59
2023-02-19T08:52:50.693Z,7.65
2023-02-19T08:57:52.295Z,7.75
2023-02-19T09:02:53.772Z,7.73
2023-02-19T09:07:56.915Z,7.69
2023-02-19T09:12:58.446Z,7.40
2023-02-19T09:18:00.138Z,7.87
2023-02-19T09:23:03.043Z,7.78
2023-02-19T09:28:04.718Z,7.72
2023-02-19T09:33:07.024Z,7.40
2023-02-19T09:38:10.133Z,7.52
2023-02-19T09:43:16.751Z,7.41
2023-02-19T09:48:18.252Z,7.65
2023-02-19T09:53:24.716Z,7.69
2023-02-19T09:58:30.617Z,7.60
2023-02-19T10:03:35.432Z,7.78
2023-02-19T10:08:39.806Z,8.08
2023-02-19T10:13:44.039Z,8.02
2023-02-19T10:18:46.622Z,8.32
2023-02-19T10:23:52.836Z,7.90
2023-02-19T10:28:54.570Z,7.87
2023-02-19T10:33:58.793Z,7.43
2023-02-19T10:39:05.543Z,7.20
2023-02-19T10:44:15.349Z,7.50
2023-02-19T10:49:24.293Z,7.65
2023-02-19T10:54:29.571Z,7.68
2023-02-19T10:59:31.104Z,7.78
2023-02-19T11:04:33.935Z,7.57
2023-02-19T11:09:39.290Z,7.52
2023-02-19T11:14:43.286Z,7.89
2023-02-19T11:19:45.453Z,7.60
2023-02-19T11:24:53.048Z,7.23
2023-02-19T11:30:37.991Z,7.01
2023-02-19T11:35:39.577Z,6.64
2023-02-19T11:40:49.718Z,6.83
2023-02-19T11:46:02.119Z,6.99
2023-02-19T11:51:19.435Z,7.55
2023-02-19T11:56:30.662Z,7.77
2023-02-19T12:01:57.787Z,7.67
2023-02-19T12:07:10.780Z,7.73
2023-02-19T12:12:37.961Z,7.54
2023-02-19T12:18:03.590Z,7.66
2023-02-19T12:23:36.635Z,7.99
2023-02-19T12:29:02.216Z,7.76
2023-02-19T12:34:34.805Z,7.70
2023-02-19T12:39:44.845Z,7.66
2023-02-19T12:44:51.412Z,7.87
2023-02-19T12:50:02.433Z,8.32
2023-02-19T12:55:18.391Z,8.34
2023-02-19T13:00:35.312Z,8.28
2023-02-19T13:05:44.364Z,8.53
2023-02-19T13:10:51.058Z,8.64
2023-02-19T13:15:58.853Z,8.66
2023-02-19T13:21:00.878Z,8.80
2023-02-19T13:26:18.634Z,8.95
2023-02-19T13:31:34.041Z,9.22
2023-02-19T13:36:36.354Z,9.63
2023-02-19T13:41:40.702Z,8.90
2023-02-19T13:46:46.065Z,9.01
2023-02-19T13:51:50.087Z,8.59
2023-02-19T13:57:26.722Z,8.58
2023-02-19T14:02:33.459Z,8.01
2023-02-19T14:08:00.788Z,8.44
2023-02-19T14:13:02.267Z,8.25
2023-02-19T14:18:43.739Z,8.32
2023-02-19T14:23:51.094Z,8.51
2023-02-19T14:28:53.597Z,8.76
2023-02-19T14:33:59.455Z,9.15
2023-02-19T14:39:03.790Z,8.57
2023-02-19T14:44:12.464Z,8.77
2023-02-19T14:49:22.200Z,9.01
2023-02-19T14:54:36.003Z,8.81
2023-02-19T14:59:37.602Z,8.31
2023-02-19T15:04:40.524Z,8.41
2023-02-19T15:09:44.577Z,8.68
2023-02-19T15:14:47.310Z,8.46
2023-02-19T15:19:50.212Z,8.33
2023-02-19T15:24:51.791Z,8.66
2023-02-19T15:29:53.900Z,8.56
2023-02-19T15:34:58.464Z,8.11
2023-02-19T15:40:03.020Z,7.88
2023-02-19T15:45:15.586Z,7.91
2023-02-19T15:50:24.557Z,7.42
2023-02-19T15:55:34.291Z,7.09
2023-02-19T16:00:41.402Z,7.13
2023-02-19T16:05:44.494Z,7.41
2023-02-19T16:10:53.880Z,7.22
2023-02-19T16:16:00.889Z,7.37
2023-02-19T16:21:08.704Z,7.22
2023-02-19T16:26:10.904Z,7.18
2023-02-19T16:31:13.764Z,7.38
2023-02-19T16:36:22.586Z,7.20
2023-02-19T16:41:24.106Z,7.51
2023-02-19T16:46:25.683Z,7.27
2023-02-19T16:51:28.578Z,7.33
2023-02-19T16:56:30.332Z,6.80
2023-02-19T17:01:31.947Z,6.89
2023-02-19T17:06:36.908Z,7.09
2023-02-19T17:11:38.487Z,6.85
2023-02-19T17:16:40.483Z,7.34
2023-02-19T17:21:44.541Z,6.97
2023-02-19T17:26:46.099Z,7.04
2023-02-19T17:31:47.700Z,6.93
2023-02-19T17:36:50.620Z,7.06
2023-02-19T17:41:52.168Z,7.11
2023-02-19T17:46:53.753Z,7.05
2023-02-19T17:51:56.681Z,7.16
2023-02-19T17:56:58.221Z,6.78
2023-02-19T18:01:59.769Z,6.40
2023-02-19T18:07:02.697Z,6.73
2023-02-19T18:12:04.954Z,6.45
2023-02-19T18:17:06.516Z,6.76
2023-02-19T18:22:09.375Z,7.04
2023-02-19T18:27:11.088Z,6.72
2023-02-19T18:32:12.667Z,6.74
2023-02-19T18:37:15.836Z,6.73
2023-02-19T18:42:17.738Z,6.55
2023-02-19T18:47:20.845Z,6.74
2023-02-19T18:52:25.217Z,6.53
2023-02-19T18:57:26.826Z,6.72
2023-02-19T19:02:36.438Z,6.67
2023-02-19T19:07:45.702Z,6.50
2023-02-19T19:12:47.456Z,6.89
2023-02-19T19:17:49.619Z,6.47
2023-02-19T19:22:52.983Z,6.70
2023-02-19T19:27:55.576Z,6.60
2023-02-19T19:32:57.430Z,6.81
2023-02-19T19:38:00.843Z,6.82
2023-02-19T19:43:02.387Z,6.87
2023-02-19T19:48:04.771Z,7.01
2023-02-19T19:53:07.626Z,7.31
2023-02-19T19:58:09.173Z,7.46
2023-02-19T20:03:10.782Z,7.31
2023-02-19T20:08:14.203Z,7.03
2023-02-19T20:13:16.414Z,7.32
2023-02-19T20:18:18.282Z,6.83
2023-02-19T20:23:21.133Z,6.92
2023-02-19T20:28:22.769Z,6.79
2023-02-19T20:33:24.297Z,6.87
2023-02-19T20:38:27.181Z,7.15
2023-02-19T20:43:28.741Z,6.95
2023-02-19T20:48:30.318Z,6.95
2023-02-19T20:53:33.231Z,6.78
2023-02-19T20:58:34.784Z,6.81
2023-02-19T21:03:36.328Z,6.48
2023-02-19T21:08:39.197Z,6.80
2023-02-19T21:13:42.452Z,6.65
2023-02-19T21:18:44.013Z,6.87
2023-02-19T21:23:46.922Z,6.57
2023-02-19T21:28:50.677Z,6.47
2023-02-19T21:33:52.241Z,6.55
2023-02-19T21:38:55.158Z,6.60
2023-02-19T21:43:57.339Z,6.51
2023-02-19T21:48:59.477Z,6.84
2023-02-19T21:54:02.461Z,6.73
2023-02-19T21:59:04.184Z,6.59
2023-02-19T22:04:07.058Z,6.57
2023-02-19T22:09:10.992Z,6.63
2023-02-19T22:14:12.587Z,6.60
2023-02-19T22:19:14.072Z,6.56
2023-02-19T22:24:19.010Z,6.57
2023-02-19T22:29:20.556Z,6.51
2023-02-19T22:34:22.202Z,6.77
2023-02-19T22:39:26.535Z,6.31
2023-02-19T22:44:28.054Z,6.65
2023-02-19T22:49:29.543Z,6.78
2023-02-19T22:54:32.327Z,7.01
2023-02-19T22:59:33.843Z,6.91
2023-02-19T23:04:35.346Z,6.96
2023-02-19T23:09:38.355Z,6.91
2023-02-19T23:14:39.966Z,7.02
2023-02-19T23:19:41.803Z,7.05
2023-02-19T23:24:44.815Z,7.24
2023-02-19T23:29:46.430Z,6.86
2023-02-19T23:34:47.940Z,7.05
2023-02-19T23:39:50.762Z,7.03
2023-02-19T23:44:52.340Z,7.05
2023-02-19T23:49:53.983Z,7.14
2023-02-19T23:54:57.025Z,6.67
2023-02-19T23:59:58.563Z,6.85
